createdAt,value
2022-09-05T00:02:03.403Z,93.90
2022-09-05T00:04:42.134Z,94.00
2022-09-05T00:07:35.989Z,94.20
2022-09-05T00:10:13.218Z,94.20
2022-09-05T00:12:43.415Z,94.30
2022-09-05T00:15:29.073Z,94.50
2022-09-05T00:21:49.578Z,94.60
2022-09-05T00:24:26.773Z,94.80
2022-09-05T00:25:36.387Z,94.90
2022-09-05T00:28:25.814Z,94.90
2022-09-05T00:31:52.024Z,94.90
2022-09-05T00:34:10.135Z,94.90
2022-09-05T00:36:49.752Z,95.00
2022-09-05T00:39:36.116Z,95.10
2022-09-05T00:42:13.341Z,95.30
2022-09-05T00:45:00.344Z,95.30
2022-09-05T00:47:41.368Z,95.50
2022-09-05T00:50:48.775Z,95.60
2022-09-05T00:53:22.623Z,95.70
2022-09-05T00:56:07.517Z,95.80
2022-09-05T00:59:05.513Z,96.00
2022-09-05T01:02:11.087Z,96.10
2022-09-05T01:04:49.573Z,96.30
2022-09-05T01:07:35.090Z,96.30
2022-09-05T01:10:19.843Z,96.50
2022-09-05T01:13:14.475Z,96.60
2022-09-05T01:16:09.491Z,96.70
2022-09-05T01:18:57.688Z,96.80
2022-09-05T01:21:30.288Z,96.90
2022-09-05T01:24:18.645Z,96.80
2022-09-05T01:27:17.776Z,96.70
2022-09-05T01:29:53.709Z,96.60
2022-09-05T01:32:39.185Z,96.70
2022-09-05T01:35:27.941Z,96.80
2022-09-05T01:38:18.139Z,96.90
2022-09-05T01:41:18.266Z,97.10
2022-09-05T01:44:07.064Z,97.20
2022-09-05T01:46:39.743Z,97.30
2022-09-05T01:49:20.406Z,97.30
2022-09-05T01:51:56.161Z,97.40
2022-09-05T01:55:06.599Z,97.40
2022-09-05T01:57:53.077Z,97.50
2022-09-05T02:01:27.971Z,97.50
2022-09-05T02:04:07.178Z,97.60
2022-09-05T02:06:54.452Z,97.60
2022-09-05T02:09:40.243Z,97.70
2022-09-05T02:12:16.039Z,97.70
2022-09-05T02:14:56.594Z,97.80
2022-09-05T02:17:49.839Z,97.70
2022-09-05T02:20:28.120Z,97.60
2022-09-05T02:23:40.760Z,97.60
2022-09-05T02:26:20.615Z,97.60
2022-09-05T02:28:56.181Z,97.70
2022-09-05T02:31:39.067Z,97.70
2022-09-05T02:34:31.745Z,97.80
2022-09-05T02:37:12.864Z,97.90
2022-09-05T02:45:00.677Z,98.00
2022-09-05T02:45:09.109Z,98.00
2022-09-05T02:46:07.351Z,98.10
2022-09-05T02:48:46.195Z,98.20
2022-09-05T02:57:27.276Z,98.20
2022-09-05T02:57:39.663Z,98.30
2022-09-05T02:58:05.478Z,98.30
2022-09-05T03:00:39.996Z,98.40
2022-09-05T03:03:19.317Z,98.50
2022-09-05T03:06:13.459Z,98.60
2022-09-05T03:08:55.406Z,98.70
2022-09-05T03:12:01.292Z,98.70
2022-09-05T03:15:22.732Z,98.90
2022-09-05T03:18:20.770Z,98.90
2022-09-05T03:21:09.161Z,98.80
2022-09-05T03:24:13.192Z,99.10
2022-09-05T03:26:58.805Z,99.10
2022-09-05T03:29:44.912Z,99.10
2022-09-05T03:32:24.510Z,99.20
2022-09-05T03:35:28.580Z,99.10
2022-09-05T03:38:32.528Z,99.30
2022-09-05T03:41:05.178Z,99.20
2022-09-05T03:43:52.111Z,99.20
2022-09-05T03:46:59.636Z,99.30
2022-09-05T03:50:53.175Z,99.30
2022-09-05T03:57:14.439Z,99.20
2022-09-05T03:57:23.219Z,99.20
2022-09-05T03:58:56.552Z,99.30
2022-09-05T04:04:49.951Z,99.30
2022-09-05T04:08:13.583Z,99.20
2022-09-05T04:08:30.973Z,99.30
2022-09-05T04:11:16.395Z,99.20
2022-09-05T04:13:56.131Z,99.20
2022-09-05T04:16:28.395Z,99.50
2022-09-05T04:19:07.921Z,99.10
2022-09-05T04:21:44.298Z,99.10
2022-09-05T04:24:27.279Z,99.10
2022-09-05T04:27:27.939Z,99.10
2022-09-05T04:29:58.462Z,99.20
2022-09-05T04:32:48.741Z,99.20
2022-09-05T04:35:48.053Z,99.30
2022-09-05T04:38:33.482Z,99.40
2022-09-05T04:41:03.363Z,99.40
2022-09-05T04:43:50.609Z,99.40
2022-09-05T04:46:47.883Z,99.50
2022-09-05T04:49:25.570Z,99.50
2022-09-05T04:52:31.447Z,99.90
2022-09-05T04:55:13.800Z,99.60
2022-09-05T04:57:51.728Z,99.60
2022-09-05T05:05:59.921Z,99.60
2022-09-05T05:06:03.813Z,99.80
2022-09-05T05:06:35.120Z,99.70
2022-09-05T05:09:19.397Z,99.80
2022-09-05T05:17:55.335Z,99.90
2022-09-05T05:18:06.720Z,99.90
2022-09-05T05:18:09.596Z,99.90
2022-09-05T05:20:43.999Z,99.90
2022-09-05T05:23:15.851Z,99.90
2022-09-05T05:25:47.884Z,99.90
2022-09-05T05:28:31.555Z,99.90
2022-09-05T05:31:10.312Z,99.90
2022-09-05T05:33:40.517Z,99.90
2022-09-05T05:36:16.376Z,99.90
2022-09-05T05:39:03.019Z,99.90
2022-09-05T05:41:44.768Z,99.90
2022-09-05T05:44:38.453Z,99.90
2022-09-05T05:47:09.167Z,99.90
2022-09-05T05:49:50.999Z,99.90
2022-09-05T05:52:39.317Z,99.90
2022-09-05T05:55:50.497Z,99.90
2022-09-05T05:58:38.091Z,99.90
2022-09-05T06:01:10.687Z,99.90
2022-09-05T06:04:09.107Z,99.90
2022-09-05T06:06:57.525Z,99.90
2022-09-05T06:14:50.394Z,99.90
2022-09-05T06:15:01.054Z,99.90
2022-09-05T06:16:29.117Z,99.90
2022-09-05T06:19:23.828Z,99.90
2022-09-05T06:22:13.786Z,99.90
2022-09-05T06:25:16.436Z,99.80
2022-09-05T06:28:19.722Z,99.60
2022-09-05T06:30:50.859Z,99.40
2022-09-05T06:34:33.472Z,99.20
2022-09-05T06:37:20.389Z,99.00
2022-09-05T06:40:06.478Z,98.70
2022-09-05T06:42:44.241Z,98.40
2022-09-05T06:45:36.624Z,98.10
2022-09-05T06:48:44.644Z,97.80
2022-09-05T06:51:20.870Z,97.50
2022-09-05T06:53:53.035Z,97.10
2022-09-05T06:56:38.472Z,96.80
2022-09-05T06:59:17.301Z,96.30
2022-09-05T07:02:07.581Z,95.80
2022-09-05T07:05:38.561Z,95.40
2022-09-05T07:07:37.357Z,94.90
2022-09-05T07:10:38.792Z,94.20
2022-09-05T07:13:14.444Z,93.20
2022-09-05T07:15:59.032Z,92.60
2022-09-05T07:18:46.895Z,91.00
2022-09-05T07:21:31.700Z,90.10
2022-09-05T07:24:09.821Z,87.40
2022-09-05T07:26:53.578Z,85.00
2022-09-05T07:29:32.128Z,82.50
2022-09-05T07:32:01.353Z,79.80
2022-09-05T07:34:34.139Z,78.00
2022-09-05T07:37:15.285Z,76.00
2022-09-05T07:39:59.062Z,74.50
2022-09-05T07:43:08.820Z,73.30
2022-09-05T07:45:52.306Z,73.60
2022-09-05T07:48:35.225Z,73.20
2022-09-05T07:56:47.725Z,72.90
2022-09-05T07:56:48.886Z,73.00
2022-09-05T07:57:27.116Z,73.30
2022-09-05T07:59:50.834Z,73.60
2022-09-05T08:02:17.641Z,73.80
2022-09-05T08:04:44.697Z,74.00
2022-09-05T08:07:46.405Z,74.10
2022-09-05T08:10:15.571Z,74.30
2022-09-05T08:13:24.458Z,74.60
2022-09-05T08:16:10.398Z,74.50
2022-09-05T08:18:50.233Z,74.60
2022-09-05T08:21:42.045Z,74.40
2022-09-05T08:24:13.155Z,74.20
2022-09-05T08:26:50.334Z,74.30
2022-09-05T08:29:31.072Z,74.30
2022-09-05T08:32:00.575Z,74.00
2022-09-05T08:34:54.533Z,73.80
2022-09-05T08:37:23.435Z,73.30
2022-09-05T08:40:10.332Z,73.10
2022-09-05T08:44:19.555Z,72.80
2022-09-05T08:46:45.726Z,72.20
2022-09-05T08:49:36.863Z,72.20
2022-09-05T08:52:31.729Z,71.90
2022-09-05T08:55:08.589Z,72.00
2022-09-05T08:57:50.772Z,72.00
2022-09-05T09:00:24.654Z,71.80
2022-09-05T09:03:06.533Z,71.80
2022-09-05T09:06:12.500Z,71.40
2022-09-05T09:09:11.833Z,70.90
2022-09-05T09:12:14.797Z,70.20
2022-09-05T09:14:59.438Z,69.80
2022-09-05T09:17:45.449Z,69.60
2022-09-05T09:20:31.157Z,69.50
2022-09-05T09:23:03.748Z,69.60
2022-09-05T09:25:43.542Z,69.90
2022-09-05T09:28:49.004Z,69.90
2022-09-05T09:31:42.944Z,69.90
2022-09-05T09:34:25.396Z,70.20
2022-09-05T09:37:11.258Z,70.70
2022-09-05T09:40:18.546Z,71.80
2022-09-05T09:42:51.331Z,71.60
2022-09-05T09:45:43.184Z,72.00
2022-09-05T09:48:21.714Z,72.20
2022-09-05T09:50:59.305Z,72.50
2022-09-05T09:53:37.247Z,72.80
2022-09-05T09:56:46.290Z,72.90
2022-09-05T09:59:15.771Z,72.80
2022-09-05T10:01:54.297Z,72.50
2022-09-05T10:10:32.817Z,72.30
2022-09-05T10:10:49.902Z,71.50
2022-09-05T10:10:54.673Z,70.60
2022-09-05T10:13:33.248Z,69.70
2022-09-05T10:16:24.196Z,68.80
2022-09-05T10:20:07.696Z,67.30
2022-09-05T10:22:38.568Z,66.20
2022-09-05T10:25:23.638Z,64.80
2022-09-05T10:28:24.276Z,64.00
2022-09-05T10:32:52.018Z,62.80
2022-09-05T10:35:17.980Z,62.60
2022-09-05T10:37:05.348Z,62.00
2022-09-05T10:39:35.508Z,60.90
2022-09-05T10:42:08.817Z,61.00
2022-09-05T10:44:46.430Z,60.90
2022-09-05T10:47:31.625Z,60.40
2022-09-05T10:50:06.522Z,59.90
2022-09-05T10:52:57.574Z,59.80
2022-09-05T10:55:30.402Z,59.30
2022-09-05T10:58:29.081Z,58.90
2022-09-05T11:02:29.552Z,58.20
2022-09-05T11:04:37.175Z,57.80
2022-09-05T11:07:59.043Z,57.00
2022-09-05T11:10:45.521Z,56.10
2022-09-05T11:13:41.114Z,55.40
2022-09-05T11:16:32.392Z,54.80
2022-09-05T11:19:14.593Z,53.80
2022-09-05T11:22:15.189Z,53.10
2022-09-05T11:25:02.352Z,52.40
2022-09-05T11:27:35.572Z,52.40
2022-09-05T11:30:08.386Z,52.10
2022-09-05T11:39:48.085Z,51.80
2022-09-05T11:39:58.053Z,51.10
2022-09-05T11:40:07.146Z,51.60
2022-09-05T11:43:11.918Z,51.20
2022-09-05T11:45:54.613Z,50.40
2022-09-05T11:48:33.726Z,50.20
2022-09-05T11:51:41.449Z,50.00
2022-09-05T11:54:37.183Z,49.20
2022-09-05T11:57:32.826Z,48.80
2022-09-05T12:00:31.363Z,48.60
2022-09-05T12:03:58.157Z,47.90
2022-09-05T12:06:59.459Z,48.30
2022-09-05T12:10:00.272Z,48.20
2022-09-05T12:12:44.933Z,47.80
2022-09-05T12:15:26.057Z,47.60
2022-09-05T12:18:39.958Z,47.70
2022-09-05T12:21:27.457Z,46.90
2022-09-05T12:25:15.371Z,47.70
2022-09-05T12:27:43.922Z,47.80
2022-09-05T12:30:11.265Z,48.30
2022-09-05T12:36:04.010Z,48.30
2022-09-05T12:36:12.660Z,48.10
2022-09-05T12:40:55.326Z,48.20
2022-09-05T12:41:40.699Z,48.50
2022-09-05T12:44:45.159Z,48.70
2022-09-05T12:47:19.311Z,48.50
2022-09-05T12:50:17.787Z,48.50
2022-09-05T12:52:49.402Z,48.20
2022-09-05T12:55:32.582Z,48.60
2022-09-05T13:03:03.074Z,49.00
2022-09-05T13:03:07.416Z,49.00
2022-09-05T13:04:17.870Z,48.90
2022-09-05T13:06:47.952Z,48.80
2022-09-05T13:10:39.443Z,49.30
2022-09-05T13:15:02.405Z,48.10
2022-09-05T13:15:40.412Z,48.40
2022-09-05T13:18:13.832Z,48.20
2022-09-05T13:20:51.299Z,48.10
2022-09-05T13:23:23.693Z,47.80
2022-09-05T13:26:33.928Z,47.60
2022-09-05T13:29:15.035Z,47.30
2022-09-05T13:38:04.004Z,47.10
2022-09-05T13:38:21.158Z,47.20
2022-09-05T13:38:30.437Z,47.20
2022-09-05T13:40:31.533Z,47.50
2022-09-05T13:43:12.319Z,47.50
2022-09-05T13:46:06.329Z,47.40
2022-09-05T13:51:35.664Z,47.60
2022-09-05T13:54:39.017Z,47.70
2022-09-05T13:57:32.476Z,47.20
2022-09-05T14:00:27.657Z,47.20
2022-09-05T14:03:39.477Z,47.20
2022-09-05T14:06:45.632Z,47.00
2022-09-05T14:09:41.003Z,46.90
2022-09-05T14:12:15.197Z,46.20
2022-09-05T14:15:13.685Z,46.20
2022-09-05T14:18:21.632Z,46.10
2022-09-05T14:21:18.889Z,46.20
2022-09-05T14:23:56.710Z,46.20
2022-09-05T14:26:41.320Z,46.40
2022-09-05T14:29:20.510Z,46.50
2022-09-05T14:37:39.090Z,46.80
2022-09-05T14:37:42.355Z,46.90
2022-09-05T14:38:15.760Z,47.10
2022-09-05T14:41:26.251Z,47.20
2022-09-05T14:44:08.243Z,47.20
2022-09-05T14:47:34.691Z,47.10
2022-09-05T14:50:35.026Z,47.00
2022-09-05T14:57:23.477Z,47.50
2022-09-05T15:02:41.795Z,47.90
2022-09-05T15:03:00.486Z,48.20
2022-09-05T15:05:11.136Z,48.40
2022-09-05T15:07:59.923Z,48.60
2022-09-05T15:12:21.380Z,48.80
2022-09-05T15:13:34.533Z,48.80
2022-09-05T15:16:10.265Z,48.90
2022-09-05T15:18:45.193Z,49.40
2022-09-05T15:21:41.506Z,49.10
2022-09-05T15:24:24.818Z,49.20
2022-09-05T15:26:57.548Z,49.10
2022-09-05T15:29:25.749Z,49.00
2022-09-05T15:32:10.958Z,49.10
2022-09-05T15:34:38.362Z,49.20
2022-09-05T15:37:22.954Z,49.30
2022-09-05T15:40:23.893Z,49.50
2022-09-05T15:42:53.054Z,49.50
2022-09-05T15:45:26.622Z,49.50
2022-09-05T15:48:02.311Z,49.50
2022-09-05T15:50:29.241Z,49.20
2022-09-05T15:52:56.214Z,49.10
2022-09-05T15:55:26.755Z,49.00
2022-09-05T15:57:56.735Z,49.00
2022-09-05T16:00:36.248Z,49.10
2022-09-05T16:04:04.318Z,49.10
2022-09-05T16:10:39.373Z,49.00
2022-09-05T16:10:41.441Z,48.90
2022-09-05T16:14:39.362Z,48.80
2022-09-05T16:23:20.434Z,49.00
2022-09-05T16:23:20.946Z,48.80
2022-09-05T16:23:45.853Z,49.10
2022-09-05T16:26:24.918Z,49.10
2022-09-05T16:29:05.928Z,49.10
2022-09-05T16:32:07.806Z,49.00
2022-09-05T16:34:52.532Z,48.90
2022-09-05T16:37:41.467Z,49.10
2022-09-05T16:40:27.128Z,49.10
2022-09-05T16:43:06.119Z,49.20
2022-09-05T16:45:55.285Z,49.30
2022-09-05T16:48:37.124Z,49.40
2022-09-05T16:51:41.209Z,49.50
2022-09-05T16:54:34.066Z,49.30
2022-09-05T16:57:27.627Z,49.30
2022-09-05T16:59:55.544Z,49.40
2022-09-05T17:02:43.577Z,50.00
2022-09-05T17:05:22.826Z,49.40
2022-09-05T17:08:14.224Z,49.50
2022-09-05T17:10:55.870Z,49.70
2022-09-05T17:13:36.880Z,49.80
2022-09-05T17:16:06.074Z,49.80
2022-09-05T17:18:36.065Z,49.80
2022-09-05T17:21:43.495Z,49.80
2022-09-05T17:29:16.981Z,50.30
2022-09-05T17:29:33.324Z,50.50
2022-09-05T17:33:27.175Z,51.10
2022-09-05T17:36:40.916Z,51.30
2022-09-05T17:39:44.136Z,51.40
2022-09-05T17:42:17.420Z,51.40
2022-09-05T17:44:50.633Z,51.60
2022-09-05T17:47:43.880Z,52.30
2022-09-05T17:50:20.138Z,51.80
2022-09-05T17:53:25.630Z,52.00
2022-09-05T17:55:54.790Z,52.20
2022-09-05T17:58:25.912Z,52.20
2022-09-05T18:01:05.385Z,52.40
2022-09-05T18:03:41.281Z,52.70
2022-09-05T18:06:18.468Z,53.10
2022-09-05T18:08:45.164Z,53.50
2022-09-05T18:11:44.579Z,53.70
2022-09-05T18:14:24.909Z,54.90
2022-09-05T18:17:36.135Z,54.40
2022-09-05T18:19:43.893Z,54.60
2022-09-05T18:22:28.497Z,55.00
2022-09-05T18:28:12.530Z,55.60
2022-09-05T18:30:39.399Z,55.90
2022-09-05T18:33:53.773Z,56.10
2022-09-05T18:35:57.825Z,56.40
2022-09-05T18:38:51.016Z,56.60
2022-09-05T18:41:23.130Z,57.00
2022-09-05T18:44:12.999Z,57.20
2022-09-05T18:46:48.127Z,57.50
2022-09-05T18:50:21.719Z,57.70
2022-09-05T18:52:22.127Z,57.80
2022-09-05T18:56:08.846Z,58.10
2022-09-05T18:57:57.906Z,58.10
2022-09-05T19:00:49.311Z,58.30
2022-09-05T19:03:31.438Z,58.40
2022-09-05T19:06:34.877Z,58.60
2022-09-05T19:08:54.713Z,58.60
2022-09-05T19:11:30.528Z,58.70
2022-09-05T19:14:28.562Z,58.80
2022-09-05T19:17:08.628Z,58.90
2022-09-05T19:20:33.157Z,59.00
2022-09-05T19:23:11.883Z,59.10
2022-09-05T19:25:45.028Z,59.10
2022-09-05T19:36:46.779Z,59.20
2022-09-05T19:36:50.139Z,59.40
2022-09-05T19:36:55.344Z,59.30
2022-09-05T19:37:26.229Z,59.50
2022-09-05T19:42:49.515Z,59.60
2022-09-05T19:47:27.709Z,59.70
2022-09-05T19:47:34.816Z,60.00
2022-09-05T19:48:32.853Z,60.20
2022-09-05T19:51:16.951Z,60.30
2022-09-05T19:54:04.912Z,60.40
2022-09-05T19:56:45.148Z,60.50
2022-09-05T19:59:26.987Z,60.80
2022-09-05T20:02:02.246Z,61.00
2022-09-05T20:04:38.071Z,61.20
2022-09-05T20:07:17.496Z,61.60
2022-09-05T20:09:47.068Z,61.90
2022-09-05T20:12:37.958Z,62.10
2022-09-05T20:15:35.982Z,62.40
2022-09-05T20:18:20.106Z,62.50
2022-09-05T20:20:54.921Z,62.50
2022-09-05T20:23:28.089Z,62.40
2022-09-05T20:25:57.040Z,62.40
2022-09-05T20:28:27.631Z,62.60
2022-09-05T20:30:59.677Z,62.50
2022-09-05T20:33:29.282Z,62.50
2022-09-05T20:43:08.716Z,62.50
2022-09-05T20:43:15.900Z,62.70
2022-09-05T20:43:30.426Z,62.60
2022-09-05T20:44:48.169Z,62.80
2022-09-05T20:50:38.649Z,63.10
2022-09-05T20:54:15.413Z,63.20
2022-09-05T20:54:31.862Z,63.30
2022-09-05T20:56:23.518Z,63.30
2022-09-05T20:58:51.612Z,63.30
2022-09-05T21:01:23.434Z,63.20
2022-09-05T21:03:57.755Z,63.60
2022-09-05T21:06:34.156Z,63.60
2022-09-05T21:09:24.508Z,63.60
2022-09-05T21:11:55.608Z,63.50
2022-09-05T21:14:24.301Z,63.40
2022-09-05T21:17:14.940Z,63.40
2022-09-05T21:19:42.091Z,63.40
2022-09-05T21:22:43.499Z,63.40
2022-09-05T21:25:36.631Z,63.70
2022-09-05T21:28:46.282Z,63.90
2022-09-05T21:31:17.081Z,64.10
2022-09-05T21:33:45.710Z,64.10
2022-09-05T21:36:14.916Z,64.20
2022-09-05T21:38:42.859Z,64.20
2022-09-05T21:41:09.691Z,64.40
2022-09-05T21:47:37.389Z,64.50
2022-09-05T21:47:41.328Z,64.60
2022-09-05T21:49:18.961Z,64.60
2022-09-05T21:51:50.284Z,64.80
2022-09-05T21:59:21.709Z,65.00
2022-09-05T21:59:24.160Z,65.10
2022-09-05T22:00:11.399Z,65.30
2022-09-05T22:02:38.416Z,65.40
2022-09-05T22:05:05.661Z,65.50
2022-09-05T22:07:35.717Z,65.60
2022-09-05T22:10:04.736Z,65.80
2022-09-05T22:12:35.801Z,65.90
2022-09-05T22:15:26.888Z,66.10
2022-09-05T22:17:54.384Z,66.10
2022-09-05T22:20:34.086Z,66.20
2022-09-05T22:23:01.649Z,66.30
2022-09-05T22:25:32.601Z,67.30
2022-09-05T22:28:07.384Z,66.70
2022-09-05T22:30:37.891Z,66.80
2022-09-05T22:33:07.831Z,66.80
2022-09-05T22:35:37.045Z,67.00
2022-09-05T22:38:11.855Z,67.10
2022-09-05T22:40:41.068Z,67.70
2022-09-05T22:43:10.110Z,67.30
2022-09-05T22:45:38.463Z,67.40
2022-09-05T22:48:11.577Z,67.60
2022-09-05T22:50:39.692Z,67.70
2022-09-05T22:53:08.533Z,67.80
2022-09-05T22:55:36.977Z,68.00
2022-09-05T22:58:05.411Z,68.10
2022-09-05T23:00:34.173Z,68.20
2022-09-05T23:03:03.375Z,68.30
2022-09-05T23:05:31.545Z,68.50
2022-09-05T23:08:02.898Z,68.60
2022-09-05T23:10:30.689Z,68.80
2022-09-05T23:12:58.111Z,68.80
2022-09-05T23:15:25.607Z,69.00
2022-09-05T23:17:59.852Z,69.10
2022-09-05T23:20:29.081Z,69.30
2022-09-05T23:22:56.738Z,69.40
2022-09-05T23:25:24.358Z,69.60
2022-09-05T23:27:51.686Z,69.70
2022-09-05T23:30:18.520Z,69.80
2022-09-05T23:32:46.452Z,70.00
2022-09-05T23:35:13.782Z,70.00
2022-09-05T23:37:44.789Z,70.10
2022-09-05T23:40:13.345Z,70.20
2022-09-05T23:42:41.056Z,70.30
2022-09-05T23:45:08.702Z,70.40
2022-09-05T23:47:36.435Z,70.50
2022-09-05T23:50:03.988Z,70.60
2022-09-05T23:52:30.696Z,70.70
2022-09-05T23:54:57.400Z,70.90
2022-09-05T23:57:24.298Z,71.10
2022-09-05T23:59:52.506Z,71.20
